Zarzaitine, In Amenas Airport (DAUZ)

NameIn Amenas Airport
CityZarzaitine
CountryAlgeria
ICAODAUZ
IATAIAM
Altitude563 m
CoordinatesGoogle Map
Live Air TrafficLiveATC.net
METARDAUZ 251700Z 20020KT 1000 BLSA NSC 35/01 Q1007
2020-04-25 17:00:00 Wind: South (200°) 10.29 m/s - Visibility: 1000 m - Weather: Blowing Sand - Temperature: 35 °C - Dew point: 1 °C - Humidity: 11.5% - Pressure: 1007 hPa

Sorry, no flights used the airport in this database.